Upstream stations:
SHEF ID: TRST2 N Wichita Rv nr Truscott, TX
STATION TYPE:
PRECIP STAGE RIV-FLOW BAT-LOAD
in ft cfs volt
Ccp-Rev Ccp-Rev Ccp-Rev Ccp-Rev
(US/Central)
09/05 00:00 0.00 6.30 29 12.81
09/05 01:00 0.00 6.29 28 12.81
09/05 02:00 0.00 6.28 27 12.81
09/05 03:00 0.00 6.29 28 12.73
09/05 04:00 0.00 6.28 27 12.73
09/05 05:00 0.00 6.29 28 12.73
09/05 06:00 0.00 6.30 29 12.73
09/05 07:00 0.00 6.29 28 12.65
09/05 08:00 0.00 6.28 27 12.73
09/05 09:00 0.00 6.27 26 13.37
09/05 10:00 0.00 6.24 24 13.53
09/05 11:00 0.00 6.22 22 13.44
09/05 12:00 0.00 6.18 18 13.29
09/05 13:00 0.00 6.21 21 13.29
09/05 14:00 0.00 6.22 22 ----
09/05 15:00 0.00 6.22 22 13.29
09/05 16:00 0.00 6.23 23 13.29
09/05 17:00 0.00 6.22 22 13.13
09/05 18:00 0.00 6.22 22 13.13
09/05 19:00 0.00 6.22 22 13.05
09/05 20:00 0.00 6.23 23 12.89
09/05 21:00 0.00 6.22 22 12.89
09/05 22:00 0.00 6.24 24 12.89
09/05 23:00 ---- ---- ---- ----